Time;durP1;ratioP1;P1;durP2;ratioP2;P2;SDS_P1;SDS_P2;PMS_P1;PMS_P2;Temp;Humidity;BMP_temperature;BMP_pressure;BME280_temperature;BME280_humidity;BME280_pressure;Samples;Min_cycle;Max_cycle;Signal;HPM_P1;HPM_P2
2024/02/19 00:00:34;;;;;;;;;6.50;6.50;;;;;;;;5097137;28;8770;-84
2024/02/19 00:03:02;;;;;;;;;8.00;8.00;;;;;;;;5098047;28;8965;-83
2024/02/19 00:05:30;;;;;;;;;6.75;6.75;;;;;;;;5095521;28;8873;-83
2024/02/19 00:07:58;;;;;;;;;8.75;8.75;;;;;;;;5089820;28;8855;-83
2024/02/19 00:10:27;;;;;;;;;9.75;9.75;;;;;;;;5088141;28;9628;-82
2024/02/19 00:12:54;;;;;;;;;10.50;9.50;;;;;;;;5088101;28;8835;-83
2024/02/19 00:15:21;;;;;;;;;11.00;8.00;;;;;;;;5088877;28;8870;-81
2024/02/19 00:17:48;;;;;;;;;8.75;6.50;;;;;;;;5087588;28;9658;-81
2024/02/19 00:20:16;;;;;;;;;11.25;8.50;;;;;;;;5088245;28;8846;-82
2024/02/19 00:22:43;;;;;;;;;9.75;8.00;;;;;;;;5087267;28;9601;-83
2024/02/19 00:25:11;;;;;;;;;9.50;7.00;;;;;;;;5087988;28;8858;-83
2024/02/19 00:27:40;;;;;;;;;9.67;9.00;;;;;;;;5088957;28;8876;-82
2024/02/19 00:30:08;;;;;;;;;7.25;7.00;;;;;;;;5090603;28;8938;-81
2024/02/19 00:32:36;;;;;;;;;12.00;10.50;;;;;;;;5081104;28;8901;-82
2024/02/19 00:35:04;;;;;;;;;12.25;8.75;;;;;;;;5093423;28;8858;-82
2024/02/19 00:37:31;;;;;;;;;9.00;8.00;;;;;;;;5096167;28;8838;-82
2024/02/19 00:39:59;;;;;;;;;11.00;9.00;;;;;;;;5095303;28;9076;-82
2024/02/19 00:42:26;;;;;;;;;12.67;11.00;;;;;;;;5092604;28;9022;-82
2024/02/19 00:44:55;;;;;;;;;6.67;6.67;;;;;;;;5090800;28;9032;-82
2024/02/19 00:47:22;;;;;;;;;15.67;11.67;;;;;;;;5091785;28;8979;-82
2024/02/19 00:49:50;;;;;;;;;10.00;10.00;;;;;;;;5090922;28;8995;-82
2024/02/19 00:52:17;;;;;;;;;14.00;10.25;;;;;;;;5091009;28;9043;-83
2024/02/19 00:54:45;;;;;;;;;13.50;13.00;;;;;;;;5091326;28;8858;-83
2024/02/19 00:57:12;;;;;;;;;12.75;9.50;;;;;;;;5073588;28;8982;-82
2024/02/19 00:59:40;;;;;;;;;10.33;10.33;;;;;;;;5089710;28;8854;-83
2024/02/19 01:02:11;;;;;;;;;13.33;10.33;;;;;;;;5090662;28;9939;-84
2024/02/19 01:04:38;;;;;;;;;12.00;9.33;;;;;;;;5091422;28;9068;-83
2024/02/19 01:07:05;;;;;;;;;9.00;9.00;;;;;;;;5091503;28;9000;-82
2024/02/19 01:09:33;;;;;;;;;8.33;8.33;;;;;;;;5090504;28;9134;-83
2024/02/19 01:12:00;;;;;;;;;11.00;10.00;;;;;;;;5092064;28;9030;-83
2024/02/19 01:14:27;;;;;;;;;10.00;10.00;;;;;;;;5091646;28;9099;-82
2024/02/19 01:16:55;;;;;;;;;11.33;10.00;;;;;;;;5091682;28;9098;-83
2024/02/19 01:19:23;;;;;;;;;8.33;7.00;;;;;;;;5091243;28;9066;-83
2024/02/19 01:21:51;;;;;;;;;8.67;7.67;;;;;;;;5091628;28;8941;-84
2024/02/19 01:24:18;;;;;;;;;10.33;10.33;;;;;;;;5090834;28;8990;-83
2024/02/19 01:26:46;;;;;;;;;8.00;8.00;;;;;;;;5091044;28;9139;-82
2024/02/19 01:29:14;;;;;;;;;7.50;6.50;;;;;;;;5091322;28;8950;-83
2024/02/19 01:31:41;;;;;;;;;8.00;8.00;;;;;;;;5080651;28;8938;-83
2024/02/19 01:34:11;;;;;;;;;10.50;8.25;;;;;;;;5090615;28;9034;-82
2024/02/19 01:36:40;;;;;;;;;10.00;8.33;;;;;;;;5088517;28;8884;-82
2024/02/19 01:39:08;;;;;;;;;11.67;10.00;;;;;;;;5091181;28;9092;-82
2024/02/19 01:41:36;;;;;;;;;8.00;8.00;;;;;;;;5094098;28;9168;-82
2024/02/19 01:44:04;;;;;;;;;9.33;7.67;;;;;;;;5094968;28;9058;-82
2024/02/19 01:46:32;;;;;;;;;12.00;9.00;;;;;;;;5094510;28;8999;-82
2024/02/19 01:49:00;;;;;;;;;9.67;9.67;;;;;;;;5093489;28;9859;-82
2024/02/19 01:51:27;;;;;;;;;8.33;8.33;;;;;;;;5095257;28;9168;-82
2024/02/19 01:53:56;;;;;;;;;10.33;10.33;;;;;;;;5094263;28;9368;-83
2024/02/19 01:56:24;;;;;;;;;9.67;9.00;;;;;;;;5091922;28;9268;-83
2024/02/19 01:58:51;;;;;;;;;12.33;10.00;;;;;;;;5090318;28;9104;-83
2024/02/19 02:01:19;;;;;;;;;9.33;9.33;;;;;;;;5071889;28;9195;-82
2024/02/19 02:03:47;;;;;;;;;11.33;8.67;;;;;;;;5089649;28;9335;-83
2024/02/19 02:06:14;;;;;;;;;7.33;7.00;;;;;;;;5096181;28;9517;-83
2024/02/19 02:08:41;;;;;;;;;7.00;6.00;;;;;;;;5090366;28;9245;-84
2024/02/19 02:11:10;;;;;;;;;8.25;8.25;;;;;;;;5091135;28;9661;-83
2024/02/19 02:13:37;;;;;;;;;14.25;10.75;;;;;;;;5093464;28;9457;-84
2024/02/19 02:16:06;;;;;;;;;8.00;7.25;;;;;;;;5097922;28;9644;-83
2024/02/19 02:18:34;;;;;;;;;7.50;7.50;;;;;;;;5115965;27;9521;-83
2024/02/19 02:21:03;;;;;;;;;11.00;8.25;;;;;;;;5097263;28;9719;-82
2024/02/19 02:23:31;;;;;;;;;7.50;7.50;;;;;;;;5091360;28;9713;-81
2024/02/19 02:25:58;;;;;;;;;9.00;7.50;;;;;;;;5092916;28;9765;-84
2024/02/19 02:28:27;;;;;;;;;10.00;8.50;;;;;;;;5094190;28;9944;-83
2024/02/19 02:30:54;;;;;;;;;12.00;10.00;;;;;;;;5092950;28;9975;-83
2024/02/19 02:33:22;;;;;;;;;11.75;10.50;;;;;;;;5090546;28;9944;-83
2024/02/19 02:35:49;;;;;;;;;11.50;9.75;;;;;;;;5089942;28;10782;-82
2024/02/19 02:38:16;;;;;;;;;7.00;7.00;;;;;;;;5094121;28;10054;-83
2024/02/19 02:40:43;;;;;;;;;13.50;11.25;;;;;;;;5088976;28;10198;-83
2024/02/19 02:43:11;;;;;;;;;13.75;10.25;;;;;;;;5089975;28;10213;-83
2024/02/19 02:45:39;;;;;;;;;12.75;12.75;;;;;;;;5080819;28;10153;-82
2024/02/19 02:48:08;;;;;;;;;11.25;7.00;;;;;;;;5090034;28;10255;-83
2024/02/19 02:50:35;;;;;;;;;11.50;11.50;;;;;;;;5088801;28;10107;-83
2024/02/19 02:53:05;;;;;;;;;6.75;6.75;;;;;;;;5089975;28;10193;-83
2024/02/19 02:55:33;;;;;;;;;10.50;10.50;;;;;;;;5089659;28;10019;-82
2024/02/19 02:58:00;;;;;;;;;11.75;10.75;;;;;;;;5089793;28;9933;-81
2024/02/19 03:00:28;;;;;;;;;17.00;13.00;;;;;;;;5089061;28;9829;-83
2024/02/19 03:02:56;;;;;;;;;5.50;5.50;;;;;;;;5089399;28;10161;-81
2024/02/19 03:05:24;;;;;;;;;10.75;10.75;;;;;;;;5089113;28;10077;-83
2024/02/19 03:07:53;;;;;;;;;10.00;10.00;;;;;;;;5089229;28;9931;-83
2024/02/19 03:10:21;;;;;;;;;11.00;11.00;;;;;;;;5100895;28;10144;-83
2024/02/19 03:12:48;;;;;;;;;11.75;10.75;;;;;;;;5089461;28;9881;-83
2024/02/19 03:15:15;;;;;;;;;10.00;7.00;;;;;;;;5089037;28;10696;-82
2024/02/19 03:17:43;;;;;;;;;15.00;11.00;;;;;;;;5089433;28;10009;-81
2024/02/19 03:20:13;;;;;;;;;10.75;9.00;;;;;;;;5101538;28;9865;-81
2024/02/19 03:22:42;;;;;;;;;10.25;8.75;;;;;;;;5084093;28;9843;-81
2024/02/19 03:25:10;;;;;;;;;6.75;6.00;;;;;;;;5091181;28;9898;-82
2024/02/19 03:27:37;;;;;;;;;10.75;9.25;;;;;;;;5072508;28;9802;-82
2024/02/19 03:30:06;;;;;;;;;10.50;10.25;;;;;;;;5087317;28;9966;-82
2024/02/19 03:32:33;;;;;;;;;7.75;7.75;;;;;;;;5089753;28;9952;-82
2024/02/19 03:35:02;;;;;;;;;14.75;11.75;;;;;;;;5102018;28;9926;-83
2024/02/19 03:37:32;;;;;;;;;6.25;6.25;;;;;;;;5097725;28;9918;-81
2024/02/19 03:39:59;;;;;;;;;11.50;11.00;;;;;;;;5097911;28;9947;-81
2024/02/19 03:42:26;;;;;;;;;10.75;10.25;;;;;;;;5093267;28;10010;-83
2024/02/19 03:44:53;;;;;;;;;7.25;7.25;;;;;;;;5091214;28;10140;-82
2024/02/19 03:47:21;;;;;;;;;11.25;11.25;;;;;;;;5087464;28;9871;-83
2024/02/19 03:49:49;;;;;;;;;4.50;3.00;;;;;;;;5089458;28;10216;-82
2024/02/19 03:52:17;;;;;;;;;10.00;10.00;;;;;;;;5092774;28;9846;-82
2024/02/19 03:54:45;;;;;;;;;12.50;12.50;;;;;;;;5093421;28;9880;-83
2024/02/19 03:57:13;;;;;;;;;13.75;10.75;;;;;;;;5086931;28;9886;-83
2024/02/19 03:59:40;;;;;;;;;11.75;10.25;;;;;;;;5085910;28;10036;-82
2024/02/19 04:02:08;;;;;;;;;9.25;7.25;;;;;;;;5088039;28;9875;-83
2024/02/19 04:04:35;;;;;;;;;11.00;9.00;;;;;;;;5089822;28;9860;-81
2024/02/19 04:07:02;;;;;;;;;13.50;11.00;;;;;;;;5092831;28;10069;-83
2024/02/19 04:09:30;;;;;;;;;11.25;11.00;;;;;;;;5090111;28;9917;-83
2024/02/19 04:11:58;;;;;;;;;10.00;10.00;;;;;;;;5102363;28;10126;-82
2024/02/19 04:14:26;;;;;;;;;11.00;9.75;;;;;;;;5094483;28;10853;-82
2024/02/19 04:16:53;;;;;;;;;9.50;8.25;;;;;;;;5095729;28;10077;-82
2024/02/19 04:19:20;;;;;;;;;9.25;7.50;;;;;;;;5095536;28;10146;-83
2024/02/19 04:21:48;;;;;;;;;11.25;9.00;;;;;;;;5093601;28;10133;-83
2024/02/19 04:24:15;;;;;;;;;12.50;12.50;;;;;;;;5092498;28;10022;-82
2024/02/19 04:26:42;;;;;;;;;12.25;9.75;;;;;;;;5084065;28;10213;-83
2024/02/19 04:29:11;;;;;;;;;11.00;11.00;;;;;;;;5089311;28;10222;-83
2024/02/19 04:31:38;;;;;;;;;10.00;10.00;;;;;;;;5091991;28;10127;-82
2024/02/19 04:34:06;;;;;;;;;17.50;11.00;;;;;;;;5091942;28;10049;-83
2024/02/19 04:36:36;;;;;;;;;10.50;10.50;;;;;;;;5100636;28;10136;-82
2024/02/19 04:39:07;;;;;;;;;14.25;10.25;;;;;;;;5091965;28;10094;-83
2024/02/19 04:41:35;;;;;;;;;11.00;10.00;;;;;;;;5092137;28;9752;-83
2024/02/19 04:44:02;;;;;;;;;11.00;8.00;;;;;;;;5091637;28;9865;-83
2024/02/19 04:46:36;;;;;;;;;12.75;11.00;;;;;;;;5091118;28;9952;-82
2024/02/19 04:49:04;;;;;;;;;13.50;11.75;;;;;;;;5093638;28;9753;-83
2024/02/19 04:51:31;;;;;;;;;12.75;12.75;;;;;;;;5101091;28;9923;-82
2024/02/19 04:53:58;;;;;;;;;11.50;11.00;;;;;;;;5116510;28;9662;-81
2024/02/19 04:56:26;;;;;;;;;12.25;10.25;;;;;;;;5095204;28;10508;-84
2024/02/19 04:58:53;;;;;;;;;9.50;9.00;;;;;;;;5091266;28;9762;-82
2024/02/19 05:01:23;;;;;;;;;12.75;11.00;;;;;;;;5091265;28;9496;-83
2024/02/19 05:03:54;;;;;;;;;13.25;13.25;;;;;;;;5079392;28;9710;-82
2024/02/19 05:06:21;;;;;;;;;11.50;11.50;;;;;;;;5098013;28;9775;-77
2024/02/19 05:08:48;;;;;;;;;14.50;12.25;;;;;;;;5091053;28;9690;-76
2024/02/19 05:11:16;;;;;;;;;14.50;13.50;;;;;;;;5091598;28;9543;-79
2024/02/19 05:13:43;;;;;;;;;13.75;12.50;;;;;;;;5091067;28;9632;-79
2024/02/19 05:16:11;;;;;;;;;16.75;10.75;;;;;;;;5091005;28;9749;-78
2024/02/19 05:18:38;;;;;;;;;13.50;11.75;;;;;;;;5092072;28;9654;-78
2024/02/19 05:21:07;;;;;;;;;12.50;11.50;;;;;;;;5092692;28;9505;-77
2024/02/19 05:23:34;;;;;;;;;14.75;13.25;;;;;;;;5094676;28;9721;-80
2024/02/19 05:26:02;;;;;;;;;11.50;11.00;;;;;;;;5093558;28;9728;-80
2024/02/19 05:28:29;;;;;;;;;13.00;13.00;;;;;;;;5094764;28;9544;-82
2024/02/19 05:30:56;;;;;;;;;10.75;10.25;;;;;;;;5092494;28;9499;-80
2024/02/19 05:33:24;;;;;;;;;12.00;11.75;;;;;;;;5086977;28;9457;-79
2024/02/19 05:35:51;;;;;;;;;13.75;9.50;;;;;;;;5090800;28;9504;-81
2024/02/19 05:38:20;;;;;;;;;12.00;11.25;;;;;;;;5083455;28;9534;-78
2024/02/19 05:40:47;;;;;;;;;13.00;11.75;;;;;;;;5089053;28;9502;-79
2024/02/19 05:43:15;;;;;;;;;12.25;11.00;;;;;;;;5090972;28;9555;-82
2024/02/19 05:45:42;;;;;;;;;12.25;9.25;;;;;;;;5102647;28;9539;-78
2024/02/19 05:48:09;;;;;;;;;13.25;11.50;;;;;;;;5090390;28;9619;-80
2024/02/19 05:50:37;;;;;;;;;13.25;10.00;;;;;;;;5087548;28;9561;-77
2024/02/19 05:53:06;;;;;;;;;12.00;11.00;;;;;;;;5090600;28;9642;-80
2024/02/19 05:55:36;;;;;;;;;12.25;11.00;;;;;;;;5091793;28;9491;-76
2024/02/19 05:58:03;;;;;;;;;14.25;10.50;;;;;;;;5093255;28;9552;-77
2024/02/19 06:00:32;;;;;;;;;15.25;12.00;;;;;;;;5091781;28;10257;-76
2024/02/19 06:03:03;;;;;;;;;12.00;12.00;;;;;;;;5089837;28;9592;-79
2024/02/19 06:05:31;;;;;;;;;14.00;10.25;;;;;;;;5080798;28;9543;-74
2024/02/19 06:07:58;;;;;;;;;14.00;13.00;;;;;;;;5091443;28;9529;-80
2024/02/19 06:10:25;;;;;;;;;12.25;10.50;;;;;;;;5090906;28;9596;-81
2024/02/19 06:12:54;;;;;;;;;13.75;13.75;;;;;;;;5089863;28;9532;-80
2024/02/19 06:15:23;;;;;;;;;12.25;11.75;;;;;;;;5089870;28;10307;-78
2024/02/19 06:17:51;;;;;;;;;15.75;14.00;;;;;;;;5089138;28;9656;-78
2024/02/19 06:20:18;;;;;;;;;15.50;12.00;;;;;;;;5089684;28;9541;-77
2024/02/19 06:22:45;;;;;;;;;13.25;13.25;;;;;;;;5092175;28;9484;-76
2024/02/19 06:25:12;;;;;;;;;14.75;12.75;;;;;;;;5096955;28;9445;-79
2024/02/19 06:27:40;;;;;;;;;15.00;13.33;;;;;;;;5087212;28;10315;-75
2024/02/19 06:30:12;;;;;;;;;12.33;10.33;;;;;;;;5088983;28;9506;-76
2024/02/19 06:32:42;;;;;;;;;11.33;11.33;;;;;;;;5087931;28;9374;-83
2024/02/19 06:35:10;;;;;;;;;13.00;13.00;;;;;;;;5089628;28;9513;-79
2024/02/19 06:37:37;;;;;;;;;15.33;13.33;;;;;;;;5088945;28;9379;-81
2024/02/19 06:40:06;;;;;;;;;12.33;10.00;;;;;;;;5088570;28;9297;-78
2024/02/19 06:42:33;;;;;;;;;15.33;11.00;;;;;;;;5088953;28;9251;-84
2024/02/19 06:45:01;;;;;;;;;14.00;12.67;;;;;;;;5089218;28;9089;-81
2024/02/19 06:47:36;;;;;;;;;8.33;8.00;;;;;;;;5087716;28;9353;-76
2024/02/19 06:50:04;;;;;;;;;4.00;4.00;;;;;;;;5094558;28;9262;-72
2024/02/19 06:52:31;;;;;;;;;15.33;12.67;;;;;;;;5086141;28;9260;-83
2024/02/19 06:54:58;;;;;;;;;14.00;9.33;;;;;;;;5072716;28;9386;-79
2024/02/19 06:57:25;;;;;;;;;9.33;9.33;;;;;;;;5089882;28;9429;-82
2024/02/19 06:59:52;;;;;;;;;13.33;10.00;;;;;;;;5090081;28;9456;-75
2024/02/19 07:02:20;;;;;;;;;11.67;9.67;;;;;;;;5067783;28;9282;-86
2024/02/19 07:04:49;;;;;;;;;11.00;8.33;;;;;;;;5076552;28;9329;-83
2024/02/19 07:07:16;;;;;;;;;10.00;10.00;;;;;;;;5091303;28;9317;-79
2024/02/19 07:09:43;;;;;;;;;13.00;12.67;;;;;;;;5089667;28;9551;-79
2024/02/19 07:12:11;;;;;;;;;11.00;8.33;;;;;;;;5082050;28;9327;-80
2024/02/19 07:14:38;;;;;;;;;13.33;13.00;;;;;;;;5091125;28;9399;-78
2024/02/19 07:17:07;;;;;;;;;15.00;13.33;;;;;;;;5092424;28;9405;-78
2024/02/19 07:19:34;;;;;;;;;17.00;13.50;;;;;;;;5091555;28;9486;-80
2024/02/19 07:22:03;;;;;;;;;20.00;12.50;;;;;;;;5092028;28;9534;-77
2024/02/19 07:24:32;;;;;;;;;15.50;13.00;;;;;;;;5089004;28;9631;-76
2024/02/19 07:27:00;;;;;;;;;15.75;13.25;;;;;;;;5088013;28;10354;-74
2024/02/19 07:29:27;;;;;;;;;13.00;13.00;;;;;;;;5083212;28;9553;-74
2024/02/19 07:31:54;;;;;;;;;10.75;9.25;;;;;;;;5078771;28;10396;-76
2024/02/19 07:34:21;;;;;;;;;15.75;13.00;;;;;;;;5087377;28;9806;-76
2024/02/19 07:36:49;;;;;;;;;15.75;14.25;;;;;;;;5088716;28;9675;-78
2024/02/19 07:39:19;;;;;;;;;18.50;14.25;;;;;;;;5086328;28;9591;-75
2024/02/19 07:41:46;;;;;;;;;14.50;13.00;;;;;;;;5088022;28;9634;-78
2024/02/19 07:44:13;;;;;;;;;15.75;14.25;;;;;;;;5092839;28;9603;-76
2024/02/19 07:46:41;;;;;;;;;15.25;14.00;;;;;;;;5094216;28;9675;-74
2024/02/19 07:49:08;;;;;;;;;13.75;13.75;;;;;;;;5088540;28;9537;-77
2024/02/19 07:51:38;;;;;;;;;18.50;18.25;;;;;;;;5101854;28;9547;-78
2024/02/19 07:54:05;;;;;;;;;15.50;14.00;;;;;;;;5078179;28;9605;-76
2024/02/19 07:56:35;;;;;;;;;16.50;14.75;;;;;;;;5089536;28;9485;-75
2024/02/19 07:59:02;;;;;;;;;20.25;14.00;;;;;;;;5089568;28;9639;-80
2024/02/19 08:01:30;;;;;;;;;19.25;15.50;;;;;;;;5087418;28;9501;-77
2024/02/19 08:03:57;;;;;;;;;17.25;15.75;;;;;;;;5087821;28;9736;-85
2024/02/19 08:06:24;;;;;;;;;18.50;15.50;;;;;;;;5087467;28;9591;-78
2024/02/19 08:08:51;;;;;;;;;17.50;16.75;;;;;;;;5087661;28;10518;-75
2024/02/19 08:11:20;;;;;;;;;16.50;16.50;;;;;;;;5087386;28;9689;-76
2024/02/19 08:13:49;;;;;;;;;20.00;17.50;;;;;;;;5088144;28;9593;-79
2024/02/19 08:16:16;;;;;;;;;15.75;15.75;;;;;;;;5089063;28;9702;-77
2024/02/19 08:18:43;;;;;;;;;23.00;19.50;;;;;;;;5096971;28;9556;-73
2024/02/19 08:21:10;;;;;;;;;18.00;16.00;;;;;;;;5087014;28;9707;-79
2024/02/19 08:23:37;;;;;;;;;29.50;23.25;;;;;;;;5088182;28;9422;-76
2024/02/19 08:26:05;;;;;;;;;19.00;19.00;;;;;;;;5087026;28;9698;-78
2024/02/19 08:28:32;;;;;;;;;28.00;25.50;;;;;;;;5087114;28;9468;-77
2024/02/19 08:31:01;;;;;;;;;23.33;15.33;;;;;;;;5086345;28;9599;-76
2024/02/19 08:33:28;;;;;;;;;25.50;21.75;;;;;;;;5080730;28;9406;-80
2024/02/19 08:35:55;;;;;;;;;20.50;18.25;;;;;;;;5087385;28;10213;-82
2024/02/19 08:38:22;;;;;;;;;18.25;17.75;;;;;;;;5088408;28;9749;-77
2024/02/19 08:40:50;;;;;;;;;20.25;18.25;;;;;;;;5085684;28;9658;-81
2024/02/19 08:43:17;;;;;;;;;24.25;19.25;;;;;;;;5087808;28;9599;-78
2024/02/19 08:45:44;;;;;;;;;25.00;19.00;;;;;;;;5087685;28;9542;-79
2024/02/19 08:48:13;;;;;;;;;21.25;18.25;;;;;;;;5087598;28;9485;-81
2024/02/19 08:50:41;;;;;;;;;19.75;19.75;;;;;;;;5091926;28;9573;-84
2024/02/19 08:53:09;;;;;;;;;15.00;15.00;;;;;;;;5107201;28;9377;-77
2024/02/19 08:55:36;;;;;;;;;17.00;15.33;;;;;;;;5094747;28;9435;-85
2024/02/19 08:58:03;;;;;;;;;20.67;19.00;;;;;;;;5096003;28;9409;-86
2024/02/19 09:00:31;;;;;;;;;21.33;19.33;;;;;;;;5095490;28;9238;-84
2024/02/19 09:02:58;;;;;;;;;24.33;19.00;;;;;;;;5094169;28;9407;-77
2024/02/19 09:05:27;;;;;;;;;19.67;17.00;;;;;;;;5096353;28;9406;-77
2024/02/19 09:07:54;;;;;;;;;20.00;18.67;;;;;;;;5096843;28;9424;-83
2024/02/19 09:10:21;;;;;;;;;21.00;18.33;;;;;;;;5097730;28;9491;-77
2024/02/19 09:12:48;;;;;;;;;21.33;21.33;;;;;;;;5094582;28;9331;-77
2024/02/19 09:15:15;;;;;;;;;21.67;15.67;;;;;;;;5092931;28;9258;-74
2024/02/19 09:17:43;;;;;;;;;22.33;22.33;;;;;;;;5094707;28;9175;-72
2024/02/19 09:20:11;;;;;;;;;20.33;20.00;;;;;;;;5093345;28;9259;-74
2024/02/19 09:22:42;;;;;;;;;21.33;19.67;;;;;;;;5092190;28;9248;-77
2024/02/19 09:25:10;;;;;;;;;23.33;22.33;;;;;;;;5091062;28;9238;-74
2024/02/19 09:27:37;;;;;;;;;26.33;25.00;;;;;;;;5089811;28;9318;-80
2024/02/19 09:30:07;;;;;;;;;27.33;27.33;;;;;;;;5089670;28;9326;-78
2024/02/19 09:32:34;;;;;;;;;29.33;25.67;;;;;;;;5090538;28;9471;-75
2024/02/19 09:35:02;;;;;;;;;23.00;23.00;;;;;;;;5090484;28;9279;-80
2024/02/19 09:37:30;;;;;;;;;27.75;25.50;;;;;;;;5089919;28;9387;-74
2024/02/19 09:39:59;;;;;;;;;23.00;20.33;;;;;;;;5090508;28;9608;-75
2024/02/19 09:42:27;;;;;;;;;28.33;26.67;;;;;;;;5090961;28;9411;-76
2024/02/19 09:44:55;;;;;;;;;28.00;28.00;;;;;;;;5090576;28;9403;-77
2024/02/19 09:47:23;;;;;;;;;25.67;20.33;;;;;;;;5093452;28;9521;-74
2024/02/19 09:49:50;;;;;;;;;24.75;24.75;;;;;;;;5092059;28;9414;-74
2024/02/19 09:52:24;;;;;;;;;27.50;24.00;;;;;;;;5089848;28;9533;-75
2024/02/19 09:54:51;;;;;;;;;21.67;18.67;;;;;;;;5090186;28;9711;-76
2024/02/19 09:57:20;;;;;;;;;8.67;8.67;;;;;;;;5089449;28;9476;-79
2024/02/19 09:59:49;;;;;;;;;11.33;8.00;;;;;;;;5089510;28;9335;-74
2024/02/19 10:02:19;;;;;;;;;8.33;8.33;;;;;;;;5088176;28;9110;-75
2024/02/19 10:04:47;;;;;;;;;5.33;5.33;;;;;;;;5089153;28;9852;-75
2024/02/19 10:07:18;;;;;;;;;11.67;8.33;;;;;;;;5089600;28;9187;-76
2024/02/19 10:09:45;;;;;;;;;7.67;7.00;;;;;;;;5089001;28;9247;-77
2024/02/19 10:12:12;;;;;;;;;6.00;6.00;;;;;;;;5090096;28;9069;-75
2024/02/19 10:14:41;;;;;;;;;7.00;6.33;;;;;;;;5088877;28;9178;-79
2024/02/19 10:17:08;;;;;;;;;5.67;5.67;;;;;;;;5089827;28;9257;-74
2024/02/19 10:19:37;;;;;;;;;10.33;7.00;;;;;;;;5089291;28;9060;-77
2024/02/19 10:22:05;;;;;;;;;19.00;15.00;;;;;;;;5089620;28;9195;-76
2024/02/19 10:24:32;;;;;;;;;16.75;14.25;;;;;;;;5089474;28;9249;-81
2024/02/19 10:26:59;;;;;;;;;13.50;12.75;;;;;;;;5089502;28;10035;-80
2024/02/19 10:29:27;;;;;;;;;18.50;15.00;;;;;;;;5088911;28;9556;-79
2024/02/19 10:31:55;;;;;;;;;17.75;17.25;;;;;;;;5088743;28;9396;-80
2024/02/19 10:34:23;;;;;;;;;18.25;14.75;;;;;;;;5089108;28;9411;-79
2024/02/19 10:36:51;;;;;;;;;17.50;16.00;;;;;;;;5088826;28;9561;-83
2024/02/19 10:39:18;;;;;;;;;15.25;13.00;;;;;;;;5088170;28;9369;-78
2024/02/19 10:41:45;;;;;;;;;17.50;17.50;;;;;;;;5089836;28;9548;-79
2024/02/19 10:44:13;;;;;;;;;21.25;18.25;;;;;;;;5088884;28;9509;-84
2024/02/19 10:46:41;;;;;;;;;17.50;11.75;;;;;;;;5090566;28;9414;-85
2024/02/19 10:49:09;;;;;;;;;17.00;17.00;;;;;;;;5098897;28;9632;-86
2024/02/19 10:51:39;;;;;;;;;19.50;16.75;;;;;;;;5099305;28;9643;-85
2024/02/19 10:54:07;;;;;;;;;25.25;19.00;;;;;;;;5101564;28;9537;-79
2024/02/19 10:56:37;;;;;;;;;24.00;23.75;;;;;;;;5099654;28;9470;-78
2024/02/19 10:59:04;;;;;;;;;22.25;19.75;;;;;;;;5094083;28;9489;-80
2024/02/19 11:01:39;;;;;;;;;25.25;23.50;;;;;;;;5092593;28;10127;-83
2024/02/19 11:04:23;;;;;;;;;23.50;23.25;;;;;;;;5088760;28;9565;-82
2024/02/19 11:06:52;;;;;;;;;21.25;20.00;;;;;;;;5087595;28;9562;-76
2024/02/19 11:09:20;;;;;;;;;22.00;21.50;;;;;;;;5088550;28;9407;-76
2024/02/19 11:11:55;;;;;;;;;22.00;20.00;;;;;;;;5087569;28;9470;-76
2024/02/19 11:14:23;;;;;;;;;22.00;20.00;;;;;;;;5087868;28;9479;-77
2024/02/19 11:16:50;;;;;;;;;17.67;17.67;;;;;;;;5088496;28;9433;-80
2024/02/19 11:19:19;;;;;;;;;19.50;17.50;;;;;;;;5085559;28;9322;-77
2024/02/19 11:21:48;;;;;;;;;25.00;23.00;;;;;;;;5093567;28;9448;-78
2024/02/19 11:24:15;;;;;;;;;19.00;17.67;;;;;;;;5093071;28;9492;-75
2024/02/19 11:26:43;;;;;;;;;16.67;16.00;;;;;;;;5088229;28;9388;-77
2024/02/19 11:29:15;;;;;;;;;22.33;21.00;;;;;;;;5087448;28;10068;-79
2024/02/19 11:31:43;;;;;;;;;16.67;10.33;;;;;;;;5088431;28;9131;-77
2024/02/19 11:34:14;;;;;;;;;11.67;11.00;;;;;;;;5089843;28;9153;-76
2024/02/19 11:36:44;;;;;;;;;11.67;11.67;;;;;;;;5090435;28;9181;-78
2024/02/19 11:39:12;;;;;;;;;11.00;11.00;;;;;;;;5085431;28;8993;-79
2024/02/19 11:41:39;;;;;;;;;8.00;8.00;;;;;;;;5089807;28;8932;-79
2024/02/19 11:44:06;;;;;;;;;11.67;10.00;;;;;;;;5090931;28;9072;-80
2024/02/19 11:46:34;;;;;;;;;7.75;7.75;;;;;;;;5093155;28;9131;-75
2024/02/19 11:49:01;;;;;;;;;6.50;6.50;;;;;;;;5090742;28;8858;-75
2024/02/19 11:51:29;;;;;;;;;9.25;8.00;;;;;;;;5088760;28;8849;-78
2024/02/19 11:53:57;;;;;;;;;8.50;8.50;;;;;;;;5087892;28;8871;-77
2024/02/19 11:56:26;;;;;;;;;6.75;6.75;;;;;;;;5087994;28;8867;-79
2024/02/19 11:58:53;;;;;;;;;9.75;7.00;;;;;;;;5107134;28;8844;-76
2024/02/19 12:01:24;;;;;;;;;4.25;4.25;;;;;;;;5082617;28;8781;-85
2024/02/19 12:03:52;;;;;;;;;4.00;4.00;;;;;;;;5076305;28;8868;-76
2024/02/19 12:06:20;;;;;;;;;4.25;4.25;;;;;;;;5087242;28;8878;-80
2024/02/19 12:08:47;;;;;;;;;4.00;4.00;;;;;;;;5088528;28;8857;-80
2024/02/19 12:11:18;;;;;;;;;5.00;5.00;;;;;;;;5086886;28;8846;-80
2024/02/19 12:13:45;;;;;;;;;6.00;6.00;;;;;;;;5088296;28;8854;-86
2024/02/19 12:16:12;;;;;;;;;5.75;5.75;;;;;;;;5086473;28;8872;-78
2024/02/19 12:18:54;;;;;;;;;9.25;7.25;;;;;;;;5088788;28;8861;-78
2024/02/19 12:21:22;;;;;;;;;9.50;7.50;;;;;;;;5085360;28;8874;-78
2024/02/19 12:23:52;;;;;;;;;10.25;8.25;;;;;;;;5089443;28;8838;-77
2024/02/19 12:26:21;;;;;;;;;9.00;7.75;;;;;;;;5091240;28;8857;-77
2024/02/19 12:28:49;;;;;;;;;6.50;6.00;;;;;;;;5092206;28;8850;-79
2024/02/19 12:31:16;;;;;;;;;6.00;6.00;;;;;;;;5090978;28;8809;-76
2024/02/19 12:33:44;;;;;;;;;7.75;5.00;;;;;;;;5093119;28;8888;-78
2024/02/19 12:36:13;;;;;;;;;7.75;6.50;;;;;;;;5094036;28;8872;-76
2024/02/19 12:38:42;;;;;;;;;6.50;5.75;;;;;;;;5093668;28;8865;-75
2024/02/19 12:41:11;;;;;;;;;7.00;5.67;;;;;;;;5097342;28;8883;-79
2024/02/19 12:43:41;;;;;;;;;6.67;6.67;;;;;;;;5096054;28;8941;-84
2024/02/19 12:46:10;;;;;;;;;4.00;4.00;;;;;;;;5097933;28;8936;-85
2024/02/19 12:48:39;;;;;;;;;7.33;6.33;;;;;;;;5099274;28;8930;-84
2024/02/19 12:51:07;;;;;;;;;6.00;6.00;;;;;;;;5098501;28;8967;-77
2024/02/19 12:53:35;;;;;;;;;5.67;5.67;;;;;;;;5092818;28;8918;-75
2024/02/19 12:56:05;;;;;;;;;6.00;6.00;;;;;;;;5091423;28;9002;-76
2024/02/19 12:58:32;;;;;;;;;7.00;7.00;;;;;;;;5104587;28;9004;-76
2024/02/19 13:01:01;;;;;;;;;6.00;6.00;;;;;;;;5092765;28;9843;-74
2024/02/19 13:03:28;;;;;;;;;7.33;7.33;;;;;;;;5092301;28;9064;-80
2024/02/19 13:05:55;;;;;;;;;10.00;7.00;;;;;;;;5090915;28;9700;-77
2024/02/19 13:08:22;;;;;;;;;9.00;6.33;;;;;;;;5090136;28;9067;-78
2024/02/19 13:10:50;;;;;;;;;7.00;6.00;;;;;;;;5091104;28;9009;-77
2024/02/19 13:13:17;;;;;;;;;7.00;7.00;;;;;;;;5090479;28;9070;-76
2024/02/19 13:15:45;;;;;;;;;7.33;7.33;;;;;;;;5091602;28;9093;-80
2024/02/19 13:18:14;;;;;;;;;9.00;7.00;;;;;;;;5089686;28;9242;-75
2024/02/19 13:20:42;;;;;;;;;8.00;8.00;;;;;;;;5091265;28;9175;-74
2024/02/19 13:23:09;;;;;;;;;7.00;7.00;;;;;;;;5090837;28;9108;-76
2024/02/19 13:25:37;;;;;;;;;10.67;9.00;;;;;;;;5093964;28;9113;-75
2024/02/19 13:28:05;;;;;;;;;8.00;8.00;;;;;;;;5092946;28;9183;-77
2024/02/19 13:30:32;;;;;;;;;8.33;8.33;;;;;;;;5090479;28;8993;-75
2024/02/19 13:33:02;;;;;;;;;7.33;6.00;;;;;;;;5090320;28;9205;-76
2024/02/19 13:35:30;;;;;;;;;11.00;8.67;;;;;;;;5091161;28;9075;-78
2024/02/19 13:37:58;;;;;;;;;9.67;6.00;;;;;;;;5097930;28;9167;-76
2024/02/19 13:40:25;;;;;;;;;9.00;7.00;;;;;;;;5091163;28;9183;-73
2024/02/19 13:42:53;;;;;;;;;7.33;7.00;;;;;;;;5093626;28;9182;-75
2024/02/19 13:45:23;;;;;;;;;6.67;6.67;;;;;;;;5090260;28;9177;-78
2024/02/19 13:47:54;;;;;;;;;8.33;8.33;;;;;;;;5090987;28;9086;-78
2024/02/19 13:50:21;;;;;;;;;7.33;7.00;;;;;;;;5090445;28;9109;-75
2024/02/19 13:52:50;;;;;;;;;7.00;7.00;;;;;;;;5090584;28;9011;-76
2024/02/19 13:55:17;;;;;;;;;9.00;8.00;;;;;;;;5088441;28;9040;-74
2024/02/19 13:57:45;;;;;;;;;8.33;8.33;;;;;;;;5090095;28;9072;-84
2024/02/19 14:00:12;;;;;;;;;8.00;6.67;;;;;;;;5089323;28;8990;-79
2024/02/19 14:02:41;;;;;;;;;10.00;9.00;;;;;;;;5090806;28;9079;-81
2024/02/19 14:05:08;;;;;;;;;9.00;9.00;;;;;;;;5088412;28;9000;-78
2024/02/19 14:07:36;;;;;;;;;8.00;8.00;;;;;;;;5090684;28;8984;-81
2024/02/19 14:10:07;;;;;;;;;11.33;8.00;;;;;;;;5094759;28;8960;-82
2024/02/19 14:12:34;;;;;;;;;11.33;8.33;;;;;;;;5093090;28;8935;-82
2024/02/19 14:15:02;;;;;;;;;10.00;10.00;;;;;;;;5089916;28;8939;-78
2024/02/19 14:17:32;;;;;;;;;6.00;6.00;;;;;;;;5090224;28;9581;-83
2024/02/19 14:20:04;;;;;;;;;8.67;8.67;;;;;;;;5096971;28;8925;-77
2024/02/19 14:22:32;;;;;;;;;10.67;7.00;;;;;;;;5093534;28;8939;-76
2024/02/19 14:25:01;;;;;;;;;9.00;7.67;;;;;;;;5091285;28;9032;-78
2024/02/19 14:27:30;;;;;;;;;6.00;5.75;;;;;;;;5091785;28;8923;-82
2024/02/19 14:29:57;;;;;;;;;6.67;6.67;;;;;;;;5094171;28;8861;-81
2024/02/19 14:32:24;;;;;;;;;6.00;6.00;;;;;;;;5093566;28;8972;-88
2024/02/19 14:34:52;;;;;;;;;7.00;7.00;;;;;;;;5093423;28;9795;-80
2024/02/19 14:37:19;;;;;;;;;8.00;6.67;;;;;;;;5093237;28;8846;-78
2024/02/19 14:39:46;;;;;;;;;6.00;6.00;;;;;;;;5094381;28;8959;-87
2024/02/19 14:42:13;;;;;;;;;6.00;5.00;;;;;;;;5090322;28;9755;-80